sensor_id;sensor_type;location;lat;lon;timestamp;pressure;altitude;pressure_sealevel;temperature;humidity
64886;BME280;51514;52.206;5.114;2022-09-09T00:12:57;100750.41;;;17.10;81.25
64886;BME280;51514;52.206;5.114;2022-09-09T00:16:15;100756.09;;;17.15;80.92
64886;BME280;51514;52.206;5.114;2022-09-09T00:18:46;100752.34;;;17.16;80.87
64886;BME280;51514;52.206;5.114;2022-09-09T00:21:14;100751.72;;;17.21;80.78
64886;BME280;51514;52.206;5.114;2022-09-09T00:23:48;100755.06;;;17.23;80.99
64886;BME280;51514;52.206;5.114;2022-09-09T00:29:09;100749.22;;;17.19;81.09
64886;BME280;51514;52.206;5.114;2022-09-09T00:31:39;100741.25;;;17.18;81.18
64886;BME280;51514;52.206;5.114;2022-09-09T00:34:11;100749.81;;;17.14;81.24
64886;BME280;51514;52.206;5.114;2022-09-09T00:36:38;100755.28;;;17.14;81.23
64886;BME280;51514;52.206;5.114;2022-09-09T00:39:04;100751.50;;;17.15;81.32
64886;BME280;51514;52.206;5.114;2022-09-09T00:44:30;100748.56;;;17.17;81.17
64886;BME280;51514;52.206;5.114;2022-09-09T00:50:00;100746.84;;;17.09;81.03
64886;BME280;51514;52.206;5.114;2022-09-09T00:55:24;100742.63;;;17.00;81.42
64886;BME280;51514;52.206;5.114;2022-09-09T00:57:53;100750.59;;;16.95;81.53
64886;BME280;51514;52.206;5.114;2022-09-09T01:00:28;100749.28;;;16.91;81.66
64886;BME280;51514;52.206;5.114;2022-09-09T01:08:01;100742.91;;;16.71;82.13
64886;BME280;51514;52.206;5.114;2022-09-09T01:10:41;100744.78;;;16.64;82.26
64886;BME280;51514;52.206;5.114;2022-09-09T01:13:16;100740.38;;;16.69;82.47
64886;BME280;51514;52.206;5.114;2022-09-09T01:15:45;100743.75;;;16.71;82.32
64886;BME280;51514;52.206;5.114;2022-09-09T01:18:14;100748.34;;;16.71;82.36
64886;BME280;51514;52.206;5.114;2022-09-09T01:20:53;100754.41;;;16.66;82.49
64886;BME280;51514;52.206;5.114;2022-09-09T01:28:54;100731.44;;;16.48;82.87
64886;BME280;51514;52.206;5.114;2022-09-09T01:31:27;100735.16;;;16.40;83.13
64886;BME280;51514;52.206;5.114;2022-09-09T01:33:53;100733.03;;;16.35;83.69
64886;BME280;51514;52.206;5.114;2022-09-09T01:36:26;100729.88;;;16.32;83.43
64886;BME280;51514;52.206;5.114;2022-09-09T01:38:55;100733.44;;;16.32;83.24
64886;BME280;51514;52.206;5.114;2022-09-09T01:41:20;100722.09;;;16.29;83.36
64886;BME280;51514;52.206;5.114;2022-09-09T01:43:46;100731.94;;;16.30;83.35
64886;BME280;51514;52.206;5.114;2022-09-09T01:46:13;100737.41;;;16.30;83.35
64886;BME280;51514;52.206;5.114;2022-09-09T01:48:40;100730.47;;;16.27;83.03
64886;BME280;51514;52.206;5.114;2022-09-09T01:51:09;100728.38;;;16.29;82.78
64886;BME280;51514;52.206;5.114;2022-09-09T01:53:35;100726.91;;;16.27;82.86
64886;BME280;51514;52.206;5.114;2022-09-09T02:02:17;100721.00;;;16.23;82.75
64886;BME280;51514;52.206;5.114;2022-09-09T02:07:41;100718.72;;;16.20;82.98
64886;BME280;51514;52.206;5.114;2022-09-09T02:10:16;100723.94;;;16.22;82.79
64886;BME280;51514;52.206;5.114;2022-09-09T02:12:47;100720.97;;;16.17;83.16
64886;BME280;51514;52.206;5.114;2022-09-09T02:15:23;100717.78;;;16.13;83.22
64886;BME280;51514;52.206;5.114;2022-09-09T02:17:52;100723.88;;;16.15;82.98
64886;BME280;51514;52.206;5.114;2022-09-09T02:20:19;100710.75;;;16.19;83.20
64886;BME280;51514;52.206;5.114;2022-09-09T02:22:47;100712.84;;;16.23;83.19
64886;BME280;51514;52.206;5.114;2022-09-09T02:25:15;100716.22;;;16.25;83.14
64886;BME280;51514;52.206;5.114;2022-09-09T02:27:43;100713.50;;;16.25;82.66
64886;BME280;51514;52.206;5.114;2022-09-09T02:30:11;100717.06;;;16.26;82.52
64886;BME280;51514;52.206;5.114;2022-09-09T02:32:38;100708.06;;;16.25;82.84
64886;BME280;51514;52.206;5.114;2022-09-09T02:35:19;100710.78;;;16.25;82.51
64886;BME280;51514;52.206;5.114;2022-09-09T02:37:46;100714.53;;;16.24;82.61
64886;BME280;51514;52.206;5.114;2022-09-09T02:40:13;100714.94;;;16.21;82.53
64886;BME280;51514;52.206;5.114;2022-09-09T02:42:42;100706.13;;;16.19;82.51
64886;BME280;51514;52.206;5.114;2022-09-09T02:45:10;100707.38;;;16.17;82.66
64886;BME280;51514;52.206;5.114;2022-09-09T02:47:41;100707.38;;;16.17;82.83
64886;BME280;51514;52.206;5.114;2022-09-09T02:50:16;100704.44;;;16.18;83.00
64886;BME280;51514;52.206;5.114;2022-09-09T02:53:17;100699.41;;;16.15;82.95
64886;BME280;51514;52.206;5.114;2022-09-09T02:58:27;100698.81;;;16.20;82.77
64886;BME280;51514;52.206;5.114;2022-09-09T03:00:52;100703.22;;;16.21;82.42
64886;BME280;51514;52.206;5.114;2022-09-09T03:03:19;100700.69;;;16.19;82.42
64886;BME280;51514;52.206;5.114;2022-09-09T03:05:45;100691.88;;;16.17;82.38
64886;BME280;51514;52.206;5.114;2022-09-09T03:08:11;100702.13;;;16.15;82.59
64886;BME280;51514;52.206;5.114;2022-09-09T03:10:38;100699.41;;;16.15;82.47
64886;BME280;51514;52.206;5.114;2022-09-09T03:13:04;100692.28;;;16.14;82.39
64886;BME280;51514;52.206;5.114;2022-09-09T03:15:33;100690.59;;;16.13;82.35
64886;BME280;51514;52.206;5.114;2022-09-09T03:17:59;100688.91;;;16.12;82.52
64886;BME280;51514;52.206;5.114;2022-09-09T03:20:26;100683.88;;;16.09;82.57
64886;BME280;51514;52.206;5.114;2022-09-09T03:22:53;100676.13;;;16.06;82.44
64886;BME280;51514;52.206;5.114;2022-09-09T03:25:19;100685.97;;;16.07;82.63
64886;BME280;51514;52.206;5.114;2022-09-09T03:27:45;100682.59;;;16.05;82.62
64886;BME280;51514;52.206;5.114;2022-09-09T03:30:10;100688.84;;;15.99;82.65
64886;BME280;51514;52.206;5.114;2022-09-09T03:32:36;100697.56;;;15.94;82.83
64886;BME280;51514;52.206;5.114;2022-09-09T03:35:02;100697.13;;;15.91;83.01
64886;BME280;51514;52.206;5.114;2022-09-09T03:37:28;100696.50;;;15.89;83.14
64886;BME280;51514;52.206;5.114;2022-09-09T03:39:53;100683.28;;;15.86;82.98
64886;BME280;51514;52.206;5.114;2022-09-09T03:42:21;100695.84;;;15.87;83.16
64886;BME280;51514;52.206;5.114;2022-09-09T03:44:47;100688.28;;;15.82;83.24
64886;BME280;51514;52.206;5.114;2022-09-09T03:47:20;100689.31;;;15.81;83.27
64886;BME280;51514;52.206;5.114;2022-09-09T03:49:47;100688.28;;;15.82;83.36
64886;BME280;51514;52.206;5.114;2022-09-09T03:52:13;100685.56;;;15.82;83.20
64886;BME280;51514;52.206;5.114;2022-09-09T03:54:39;100693.28;;;15.79;83.24
64886;BME280;51514;52.206;5.114;2022-09-09T03:57:04;100685.91;;;15.73;83.39
64886;BME280;51514;52.206;5.114;2022-09-09T03:59:30;100691.94;;;15.68;83.48
64886;BME280;51514;52.206;5.114;2022-09-09T04:01:56;100695.88;;;15.65;83.83
64886;BME280;51514;52.206;5.114;2022-09-09T04:04:22;100698.75;;;15.57;84.03
64886;BME280;51514;52.206;5.114;2022-09-09T04:06:47;100695.72;;;15.52;84.25
64886;BME280;51514;52.206;5.114;2022-09-09T04:09:16;100686.53;;;15.53;84.13
64886;BME280;51514;52.206;5.114;2022-09-09T04:11:41;100690.47;;;15.51;84.58
64886;BME280;51514;52.206;5.114;2022-09-09T04:14:06;100682.13;;;15.52;84.27
64886;BME280;51514;52.206;5.114;2022-09-09T04:16:33;100683.47;;;15.56;83.94
64886;BME280;51514;52.206;5.114;2022-09-09T04:19:00;100683.47;;;15.56;83.80
64886;BME280;51514;52.206;5.114;2022-09-09T04:21:30;100686.53;;;15.53;83.77
64886;BME280;51514;52.206;5.114;2022-09-09T04:23:55;100667.50;;;15.53;83.67
64886;BME280;51514;52.206;5.114;2022-09-09T04:26:20;100666.50;;;15.54;83.95
64886;BME280;51514;52.206;5.114;2022-09-09T04:28:45;100673.44;;;15.57;83.64
64886;BME280;51514;52.206;5.114;2022-09-09T04:31:19;100664.22;;;15.58;83.63
64886;BME280;51514;52.206;5.114;2022-09-09T04:33:46;100667.59;;;15.60;83.66
64886;BME280;51514;52.206;5.114;2022-09-09T04:36:13;100665.81;;;15.52;83.63
64886;BME280;51514;52.206;5.114;2022-09-09T04:38:38;100657.41;;;15.47;84.24
64886;BME280;51514;52.206;5.114;2022-09-09T04:41:05;100663.25;;;15.44;84.50
64886;BME280;51514;52.206;5.114;2022-09-09T04:43:30;100661.56;;;15.43;84.60
64886;BME280;51514;52.206;5.114;2022-09-09T04:45:56;100658.19;;;15.41;84.76
64886;BME280;51514;52.206;5.114;2022-09-09T04:48:21;100657.34;;;15.41;84.79
64886;BME280;51514;52.206;5.114;2022-09-09T04:51:16;100656.69;;;15.39;85.21
64886;BME280;51514;52.206;5.114;2022-09-09T04:53:42;100661.94;;;15.40;84.92
64886;BME280;51514;52.206;5.114;2022-09-09T04:56:13;100658.56;;;15.38;84.87
64886;BME280;51514;52.206;5.114;2022-09-09T04:58:39;100656.91;;;15.37;85.00
64886;BME280;51514;52.206;5.114;2022-09-09T05:01:17;100656.28;;;15.35;85.17
64886;BME280;51514;52.206;5.114;2022-09-09T05:03:43;100657.94;;;15.36;85.08
64886;BME280;51514;52.206;5.114;2022-09-09T05:06:12;100657.31;;;15.34;85.29
64886;BME280;51514;52.206;5.114;2022-09-09T05:08:38;100658.16;;;15.34;85.11
64886;BME280;51514;52.206;5.114;2022-09-09T05:11:16;100657.69;;;15.31;85.50
64886;BME280;51514;52.206;5.114;2022-09-09T05:13:42;100654.13;;;15.30;85.60
64886;BME280;51514;52.206;5.114;2022-09-09T05:16:07;100651.41;;;15.30;85.37
64886;BME280;51514;52.206;5.114;2022-09-09T05:18:35;100643.91;;;15.32;85.49
64886;BME280;51514;52.206;5.114;2022-09-09T05:21:02;100642.69;;;15.35;85.38
64886;BME280;51514;52.206;5.114;2022-09-09T05:23:27;100657.31;;;15.34;85.65
64886;BME280;51514;52.206;5.114;2022-09-09T05:25:56;100657.69;;;15.31;85.74
64886;BME280;51514;52.206;5.114;2022-09-09T05:28:25;100659.50;;;15.24;85.98
64886;BME280;51514;52.206;5.114;2022-09-09T05:30:58;100655.47;;;15.20;86.43
64886;BME280;51514;52.206;5.114;2022-09-09T05:33:25;100663.34;;;15.15;86.90
64886;BME280;51514;52.206;5.114;2022-09-09T05:36:23;100660.00;;;15.13;87.16
64886;BME280;51514;52.206;5.114;2022-09-09T05:38:49;100655.00;;;15.16;87.00
64886;BME280;51514;52.206;5.114;2022-09-09T05:41:15;100643.13;;;15.17;87.13
64886;BME280;51514;52.206;5.114;2022-09-09T05:43:42;100643.59;;;15.21;86.92
64886;BME280;51514;52.206;5.114;2022-09-09T05:46:15;100648.41;;;15.25;86.89
64886;BME280;51514;52.206;5.114;2022-09-09T05:48:43;100651.34;;;15.24;87.29
64886;BME280;51514;52.206;5.114;2022-09-09T05:51:11;100647.53;;;15.18;87.79
64886;BME280;51514;52.206;5.114;2022-09-09T05:53:38;100652.56;;;15.21;87.76
64886;BME280;51514;52.206;5.114;2022-09-09T05:56:12;100652.63;;;15.28;88.03
64886;BME280;51514;52.206;5.114;2022-09-09T05:58:39;100658.53;;;15.31;88.01
64886;BME280;51514;52.206;5.114;2022-09-09T06:01:13;100647.66;;;15.31;88.61
64886;BME280;51514;52.206;5.114;2022-09-09T06:03:40;100648.97;;;15.36;88.44
64886;BME280;51514;52.206;5.114;2022-09-09T06:06:08;100657.75;;;15.38;88.63
64886;BME280;51514;52.206;5.114;2022-09-09T06:08:36;100660.06;;;15.41;88.61
64886;BME280;51514;52.206;5.114;2022-09-09T06:11:07;100660.25;;;15.39;88.60
64886;BME280;51514;52.206;5.114;2022-09-09T06:13:33;100652.38;;;15.44;88.75
64886;BME280;51514;52.206;5.114;2022-09-09T06:16:00;100652.63;;;15.49;88.57
64886;BME280;51514;52.206;5.114;2022-09-09T06:18:26;100655.78;;;15.53;88.44
64886;BME280;51514;52.206;5.114;2022-09-09T06:20:59;100658.34;;;15.54;88.95
64886;BME280;51514;52.206;5.114;2022-09-09T06:23:32;100657.56;;;15.60;89.16
64886;BME280;51514;52.206;5.114;2022-09-09T06:26:06;100658.88;;;15.64;89.41
64886;BME280;51514;52.206;5.114;2022-09-09T06:28:33;100660.59;;;15.72;89.58
64886;BME280;51514;52.206;5.114;2022-09-09T06:31:01;100651.84;;;15.77;89.88
64886;BME280;51514;52.206;5.114;2022-09-09T06:33:30;100650.22;;;15.82;90.79
64886;BME280;51514;52.206;5.114;2022-09-09T06:35:56;100645.88;;;15.88;90.40
64886;BME280;51514;52.206;5.114;2022-09-09T06:38:22;100659.47;;;15.88;90.52
64886;BME280;51514;52.206;5.114;2022-09-09T06:40:54;100650.69;;;15.92;90.14
64886;BME280;51514;52.206;5.114;2022-09-09T06:43:21;100646.59;;;16.03;90.53
64886;BME280;51514;52.206;5.114;2022-09-09T06:45:57;100648.91;;;16.06;90.08
64886;BME280;51514;52.206;5.114;2022-09-09T06:48:23;100645.16;;;16.07;89.43
64886;BME280;51514;52.206;5.114;2022-09-09T06:50:51;100638.28;;;16.11;89.34
64886;BME280;51514;52.206;5.114;2022-09-09T06:53:17;100642.19;;;16.02;89.00
64886;BME280;51514;52.206;5.114;2022-09-09T06:55:45;100635.78;;;16.10;88.99
64886;BME280;51514;52.206;5.114;2022-09-09T06:58:10;100646.47;;;16.11;88.66
64886;BME280;51514;52.206;5.114;2022-09-09T07:00:36;100648.09;;;16.12;88.94
64886;BME280;51514;52.206;5.114;2022-09-09T07:03:04;100651.72;;;16.19;88.55
64886;BME280;51514;52.206;5.114;2022-09-09T07:05:29;100658.91;;;16.33;89.20
64886;BME280;51514;52.206;5.114;2022-09-09T07:07:54;100663.59;;;16.46;88.92
64886;BME280;51514;52.206;5.114;2022-09-09T07:10:20;100651.72;;;16.60;88.88
64886;BME280;51514;52.206;5.114;2022-09-09T07:12:50;100654.94;;;16.64;87.77
64886;BME280;51514;52.206;5.114;2022-09-09T07:15:16;100658.72;;;16.69;87.56
64886;BME280;51514;52.206;5.114;2022-09-09T07:17:43;100652.41;;;16.69;86.59
64886;BME280;51514;52.206;5.114;2022-09-09T07:20:09;100649.13;;;16.80;86.69
64886;BME280;51514;52.206;5.114;2022-09-09T07:22:34;100644.91;;;16.77;86.63
64886;BME280;51514;52.206;5.114;2022-09-09T07:25:00;100648.72;;;16.83;86.41
64886;BME280;51514;52.206;5.114;2022-09-09T07:27:26;100647.03;;;16.89;86.53
64886;BME280;51514;52.206;5.114;2022-09-09T07:29:51;100648.31;;;16.86;85.73
64886;BME280;51514;52.206;5.114;2022-09-09T07:32:19;100651.25;;;16.91;84.97
64886;BME280;51514;52.206;5.114;2022-09-09T07:34:45;100657.78;;;16.97;85.25
64886;BME280;51514;52.206;5.114;2022-09-09T07:37:12;100651.28;;;17.04;84.94
64886;BME280;51514;52.206;5.114;2022-09-09T07:39:39;100654.66;;;17.06;84.81
64886;BME280;51514;52.206;5.114;2022-09-09T07:42:04;100652.53;;;17.02;84.40
64886;BME280;51514;52.206;5.114;2022-09-09T07:44:30;100644.56;;;17.00;84.49
64886;BME280;51514;52.206;5.114;2022-09-09T07:46:57;100657.13;;;17.01;83.85
64886;BME280;51514;52.206;5.114;2022-09-09T07:49:23;100655.50;;;17.07;84.18
64886;BME280;51514;52.206;5.114;2022-09-09T07:51:49;100652.13;;;17.11;84.21
64886;BME280;51514;52.206;5.114;2022-09-09T07:54:17;100649.00;;;17.21;84.18
64886;BME280;51514;52.206;5.114;2022-09-09T07:56:46;100645.03;;;17.24;83.18
64886;BME280;51514;52.206;5.114;2022-09-09T07:59:12;100654.25;;;17.23;82.43
64886;BME280;51514;52.206;5.114;2022-09-09T08:01:43;100649.25;;;17.26;82.77
64886;BME280;51514;52.206;5.114;2022-09-09T08:04:10;100647.97;;;17.22;82.43
64886;BME280;51514;52.206;5.114;2022-09-09T08:06:43;100643.56;;;17.14;82.95
64886;BME280;51514;52.206;5.114;2022-09-09T08:09:09;100649.25;;;17.20;83.44
64886;BME280;51514;52.206;5.114;2022-09-09T08:11:36;100653.81;;;17.12;82.45
64886;BME280;51514;52.206;5.114;2022-09-09T08:14:03;100650.50;;;17.24;82.76
64886;BME280;51514;52.206;5.114;2022-09-09T08:16:31;100646.72;;;17.25;83.01
64886;BME280;51514;52.206;5.114;2022-09-09T08:18:57;100653.44;;;17.29;82.37
64886;BME280;51514;52.206;5.114;2022-09-09T08:21:24;100653.44;;;17.42;82.76
64886;BME280;51514;52.206;5.114;2022-09-09T08:23:52;100653.47;;;17.48;82.55
64886;BME280;51514;52.206;5.114;2022-09-09T08:26:20;100646.53;;;17.46;81.96
64886;BME280;51514;52.206;5.114;2022-09-09T08:28:48;100656.81;;;17.50;82.14
64886;BME280;51514;52.206;5.114;2022-09-09T08:31:20;100646.34;;;17.61;81.97
64886;BME280;51514;52.206;5.114;2022-09-09T08:33:46;100646.78;;;17.64;81.70
64886;BME280;51514;52.206;5.114;2022-09-09T08:36:17;100656.88;;;17.70;81.50
64886;BME280;51514;52.206;5.114;2022-09-09T08:38:43;100658.09;;;17.74;81.50
64886;BME280;51514;52.206;5.114;2022-09-09T08:49:45;100669.03;;;17.68;80.35
64886;BME280;51514;52.206;5.114;2022-09-09T08:52:25;100662.72;;;17.74;80.70
64886;BME280;51514;52.206;5.114;2022-09-09T08:54:56;100677.44;;;17.73;80.24
64886;BME280;51514;52.206;5.114;2022-09-09T08:57:26;100671.72;;;17.61;79.61
64886;BME280;51514;52.206;5.114;2022-09-09T08:59:54;100670.06;;;17.67;80.33
64886;BME280;51514;52.206;5.114;2022-09-09T09:02:42;100667.72;;;17.57;80.34
64886;BME280;51514;52.206;5.114;2022-09-09T09:10:41;100677.00;;;17.69;80.38
64886;BME280;51514;52.206;5.114;2022-09-09T09:13:14;100682.47;;;17.63;80.06
64886;BME280;51514;52.206;5.114;2022-09-09T09:15:41;100668.16;;;17.61;80.18
64886;BME280;51514;52.206;5.114;2022-09-09T09:18:10;100679.25;;;17.59;80.44
64886;BME280;51514;52.206;5.114;2022-09-09T09:20:49;100680.94;;;17.60;80.20
64886;BME280;51514;52.206;5.114;2022-09-09T09:23:22;100683.88;;;17.52;80.01
64886;BME280;51514;52.206;5.114;2022-09-09T09:25:48;100675.28;;;17.48;80.15
64886;BME280;51514;52.206;5.114;2022-09-09T09:28:18;100679.03;;;17.47;80.90
64886;BME280;51514;52.206;5.114;2022-09-09T09:31:07;100679.47;;;17.51;80.63
64886;BME280;51514;52.206;5.114;2022-09-09T09:33:50;100682.81;;;17.53;80.73
64886;BME280;51514;52.206;5.114;2022-09-09T09:36:18;100681.16;;;17.52;80.32
64886;BME280;51514;52.206;5.114;2022-09-09T09:38:56;100685.13;;;17.56;80.69
64886;BME280;51514;52.206;5.114;2022-09-09T09:41:33;100681.16;;;17.52;80.49
64886;BME280;51514;52.206;5.114;2022-09-09T09:44:00;100674.44;;;17.61;80.57
64886;BME280;51514;52.206;5.114;2022-09-09T09:46:27;100686.84;;;17.64;80.19
64886;BME280;51514;52.206;5.114;2022-09-09T09:49:01;100683.28;;;17.63;79.98
64886;BME280;51514;52.206;5.114;2022-09-09T09:51:28;100681.81;;;17.67;80.60
64886;BME280;51514;52.206;5.114;2022-09-09T09:54:05;100685.34;;;17.61;80.71
64886;BME280;51514;52.206;5.114;2022-09-09T09:56:35;100682.66;;;17.68;81.18
64886;BME280;51514;52.206;5.114;2022-09-09T09:59:00;100679.28;;;17.66;81.26
64886;BME280;51514;52.206;5.114;2022-09-09T10:01:31;100677.63;;;17.71;82.33
64886;BME280;51514;52.206;5.114;2022-09-09T10:04:13;100677.44;;;17.73;81.72
64886;BME280;51514;52.206;5.114;2022-09-09T10:06:39;100679.91;;;17.74;82.14
64886;BME280;51514;52.206;5.114;2022-09-09T10:09:24;100676.78;;;17.71;82.78
64886;BME280;51514;52.206;5.114;2022-09-09T10:11:55;100683.50;;;17.68;82.52
64886;BME280;51514;52.206;5.114;2022-09-09T10:26:20;100676.78;;;17.91;81.70
64886;BME280;51514;52.206;5.114;2022-09-09T10:29:14;100678.47;;;17.78;84.91
64886;BME280;51514;52.206;5.114;2022-09-09T10:34:46;100690.00;;;17.67;87.51
64886;BME280;51514;52.206;5.114;2022-09-09T10:37:26;100677.00;;;17.69;88.44
64886;BME280;51514;52.206;5.114;2022-09-09T10:40:12;100680.38;;;17.84;91.19
64886;BME280;51514;52.206;5.114;2022-09-09T10:42:41;100674.06;;;18.04;90.29
64886;BME280;51514;52.206;5.114;2022-09-09T10:50:40;100665.81;;;18.37;88.26
64886;BME280;51514;52.206;5.114;2022-09-09T10:53:17;100671.66;;;18.40;86.50
64886;BME280;51514;52.206;5.114;2022-09-09T10:55:51;100669.38;;;18.37;85.61
64886;BME280;51514;52.206;5.114;2022-09-09T10:59:11;100672.09;;;18.31;84.67
64886;BME280;51514;52.206;5.114;2022-09-09T11:01:44;100657.63;;;18.30;85.71
64886;BME280;51514;52.206;5.114;2022-09-09T11:04:25;100673.34;;;18.28;85.36
64886;BME280;51514;52.206;5.114;2022-09-09T11:06:55;100662.84;;;18.45;85.71
64886;BME280;51514;52.206;5.114;2022-09-09T11:09:28;100661.56;;;18.47;85.33
64886;BME280;51514;52.206;5.114;2022-09-09T11:11:58;100664.13;;;18.36;82.48
64886;BME280;51514;52.206;5.114;2022-09-09T11:14:55;100675.66;;;18.31;82.63
64886;BME280;51514;52.206;5.114;2022-09-09T11:17:45;100673.81;;;18.25;82.93
64886;BME280;51514;52.206;5.114;2022-09-09T11:20:13;100666.63;;;18.31;83.98
64886;BME280;51514;52.206;5.114;2022-09-09T11:23:04;100665.59;;;18.18;83.12
64886;BME280;51514;52.206;5.114;2022-09-09T11:25:36;100663.53;;;18.14;83.67
64886;BME280;51514;52.206;5.114;2022-09-09T11:31:08;100665.63;;;18.25;84.60
64886;BME280;51514;52.206;5.114;2022-09-09T11:36:36;100654.63;;;18.45;83.90
64886;BME280;51514;52.206;5.114;2022-09-09T11:41:53;100647.09;;;18.40;81.77
64886;BME280;51514;52.206;5.114;2022-09-09T11:44:26;100655.47;;;18.39;81.79
64886;BME280;51514;52.206;5.114;2022-09-09T11:46:53;100650.47;;;18.29;82.08
64886;BME280;51514;52.206;5.114;2022-09-09T11:49:30;100662.88;;;18.25;83.06
64886;BME280;51514;52.206;5.114;2022-09-09T11:52:38;100654.94;;;18.17;83.94
64886;BME280;51514;52.206;5.114;2022-09-09T11:55:27;100663.94;;;18.11;84.85
64886;BME280;51514;52.206;5.114;2022-09-09T11:58:05;100667.31;;;18.13;84.90
64886;BME280;51514;52.206;5.114;2022-09-09T12:03:04;100667.78;;;17.83;86.40
64886;BME280;51514;52.206;5.114;2022-09-09T12:05:40;100666.72;;;17.84;87.11
64886;BME280;51514;52.206;5.114;2022-09-09T12:08:09;100663.56;;;17.94;87.98
64886;BME280;51514;52.206;5.114;2022-09-09T12:10:39;100662.28;;;18.10;88.58
64886;BME280;51514;52.206;5.114;2022-09-09T12:13:18;100662.03;;;18.18;87.21
64886;BME280;51514;52.206;5.114;2022-09-09T12:15:48;100659.94;;;18.20;87.05
64886;BME280;51514;52.206;5.114;2022-09-09T12:18:22;100657.81;;;18.29;86.85
64886;BME280;51514;52.206;5.114;2022-09-09T12:21:10;100662.25;;;18.23;85.41
64886;BME280;51514;52.206;5.114;2022-09-09T12:23:54;100664.78;;;18.24;86.46
64886;BME280;51514;52.206;5.114;2022-09-09T12:26:30;100657.16;;;18.40;86.46
64886;BME280;51514;52.206;5.114;2022-09-09T12:31:47;100657.91;;;18.73;84.01
64886;BME280;51514;52.206;5.114;2022-09-09T12:34:24;100653.75;;;18.71;82.90
64886;BME280;51514;52.206;5.114;2022-09-09T12:36:58;100652.06;;;18.70;82.02
64886;BME280;51514;52.206;5.114;2022-09-09T12:39:35;100644.94;;;18.69;82.51
64886;BME280;51514;52.206;5.114;2022-09-09T12:42:03;100651.69;;;18.59;82.65
64886;BME280;51514;52.206;5.114;2022-09-09T12:44:29;100652.94;;;18.57;81.95
64886;BME280;51514;52.206;5.114;2022-09-09T12:46:57;100648.34;;;18.57;82.20
64886;BME280;51514;52.206;5.114;2022-09-09T12:49:30;100650.41;;;18.55;83.37
64886;BME280;51514;52.206;5.114;2022-09-09T12:52:06;100657.75;;;18.62;82.76
64886;BME280;51514;52.206;5.114;2022-09-09T12:54:36;100655.66;;;18.64;82.46
64886;BME280;51514;52.206;5.114;2022-09-09T12:57:01;100646.44;;;18.58;80.72
64886;BME280;51514;52.206;5.114;2022-09-09T12:59:36;100648.50;;;18.63;80.97
64886;BME280;51514;52.206;5.114;2022-09-09T13:04:42;100643.88;;;18.56;80.67
64886;BME280;51514;52.206;5.114;2022-09-09T13:07:08;100642.88;;;18.57;81.13
64886;BME280;51514;52.206;5.114;2022-09-09T13:09:35;100642.47;;;18.47;80.45
64886;BME280;51514;52.206;5.114;2022-09-09T13:12:00;100645.56;;;18.51;80.63
64886;BME280;51514;52.206;5.114;2022-09-09T13:14:35;100642.25;;;18.49;80.51
64886;BME280;51514;52.206;5.114;2022-09-09T13:17:04;100641.81;;;18.45;80.52
64886;BME280;51514;52.206;5.114;2022-09-09T13:19:35;100644.16;;;18.35;81.70
64886;BME280;51514;52.206;5.114;2022-09-09T13:22:16;100643.97;;;18.37;82.34
64886;BME280;51514;52.206;5.114;2022-09-09T13:24:44;100641.22;;;18.37;82.45
64886;BME280;51514;52.206;5.114;2022-09-09T13:29:53;100642.47;;;18.47;82.49
64886;BME280;51514;52.206;5.114;2022-09-09T13:32:20;100643.25;;;18.54;81.89
64886;BME280;51514;52.206;5.114;2022-09-09T13:34:52;100646.41;;;18.65;81.82
64886;BME280;51514;52.206;5.114;2022-09-09T13:37:26;100645.78;;;18.63;81.70
64886;BME280;51514;52.206;5.114;2022-09-09T13:39:54;100636.16;;;18.60;81.23
64886;BME280;51514;52.206;5.114;2022-09-09T13:42:27;100636.16;;;18.60;81.00
64886;BME280;51514;52.206;5.114;2022-09-09T13:44:55;100643.66;;;18.65;81.07
64886;BME280;51514;52.206;5.114;2022-09-09T13:47:27;100643.88;;;18.70;81.59
64886;BME280;51514;52.206;5.114;2022-09-09T13:49:53;100638.59;;;18.75;81.48
64886;BME280;51514;52.206;5.114;2022-09-09T13:52:19;100641.72;;;18.78;81.57
64886;BME280;51514;52.206;5.114;2022-09-09T13:54:51;100639.41;;;18.82;81.25
64886;BME280;51514;52.206;5.114;2022-09-09T13:57:19;100637.72;;;18.81;80.18
64886;BME280;51514;52.206;5.114;2022-09-09T13:59:46;100641.94;;;18.77;80.04
64886;BME280;51514;52.206;5.114;2022-09-09T14:02:13;100648.66;;;18.81;80.63
64886;BME280;51514;52.206;5.114;2022-09-09T14:04:38;100654.97;;;18.75;80.33
64886;BME280;51514;52.206;5.114;2022-09-09T14:07:10;100651.19;;;18.76;80.19
64886;BME280;51514;52.206;5.114;2022-09-09T14:09:36;100645.72;;;18.76;80.64
64886;BME280;51514;52.206;5.114;2022-09-09T14:12:01;100652.06;;;18.70;80.66
64886;BME280;51514;52.206;5.114;2022-09-09T14:14:27;100656.91;;;18.61;80.99
64886;BME280;51514;52.206;5.114;2022-09-09T14:16:53;100644.31;;;18.53;80.90
64886;BME280;51514;52.206;5.114;2022-09-09T14:19:18;100657.97;;;18.53;81.60
64886;BME280;51514;52.206;5.114;2022-09-09T14:21:44;100652.53;;;18.47;81.75
64886;BME280;51514;52.206;5.114;2022-09-09T14:24:09;100656.09;;;18.47;82.15
64886;BME280;51514;52.206;5.114;2022-09-09T14:26:34;100646.41;;;18.51;82.26
64886;BME280;51514;52.206;5.114;2022-09-09T14:28:59;100649.78;;;18.53;82.66
64886;BME280;51514;52.206;5.114;2022-09-09T14:31:28;100648.34;;;18.57;83.18
64886;BME280;51514;52.206;5.114;2022-09-09T14:33:54;100644.31;;;18.67;83.37
64886;BME280;51514;52.206;5.114;2022-09-09T14:36:19;100636.91;;;18.74;83.00
64886;BME280;51514;52.206;5.114;2022-09-09T14:38:45;100642.78;;;18.77;82.51
64886;BME280;51514;52.206;5.114;2022-09-09T14:41:12;100638.56;;;18.81;82.31
64886;BME280;51514;52.206;5.114;2022-09-09T14:43:39;100636.41;;;18.90;82.11
64886;BME280;51514;52.206;5.114;2022-09-09T14:46:06;100637.84;;;18.99;81.95